sensor_id;sensor_type;location;lat;lon;timestamp;temperature;humidity
5154;DHT22;2595;53.584;10.084;2022-08-04T00:01:07;24.60;99.90
5154;DHT22;2595;53.584;10.084;2022-08-04T00:06:20;24.70;99.90
5154;DHT22;2595;53.584;10.084;2022-08-04T00:08:55;24.70;99.90
5154;DHT22;2595;53.584;10.084;2022-08-04T00:11:25;24.70;99.90
5154;DHT22;2595;53.584;10.084;2022-08-04T00:14:02;24.60;99.90
5154;DHT22;2595;53.584;10.084;2022-08-04T00:16:28;24.60;99.90
5154;DHT22;2595;53.584;10.084;2022-08-04T00:19:11;24.50;99.90
5154;DHT22;2595;53.584;10.084;2022-08-04T00:21:46;24.50;99.90
5154;DHT22;2595;53.584;10.084;2022-08-04T00:24:13;24.40;99.90
5154;DHT22;2595;53.584;10.084;2022-08-04T00:26:40;24.40;99.90
5154;DHT22;2595;53.584;10.084;2022-08-04T00:29:07;24.40;99.90
5154;DHT22;2595;53.584;10.084;2022-08-04T00:31:33;24.30;99.90
5154;DHT22;2595;53.584;10.084;2022-08-04T00:33:59;24.30;99.90
5154;DHT22;2595;53.584;10.084;2022-08-04T00:36:25;24.30;99.90
5154;DHT22;2595;53.584;10.084;2022-08-04T00:38:52;24.30;99.90
5154;DHT22;2595;53.584;10.084;2022-08-04T00:50:03;24.30;99.90
5154;DHT22;2595;53.584;10.084;2022-08-04T00:55:41;24.30;99.90
5154;DHT22;2595;53.584;10.084;2022-08-04T01:01:05;24.30;99.90
5154;DHT22;2595;53.584;10.084;2022-08-04T01:03:36;24.20;99.90
5154;DHT22;2595;53.584;10.084;2022-08-04T01:06:23;24.20;99.90
5154;DHT22;2595;53.584;10.084;2022-08-04T01:18:06;24.10;99.90
5154;DHT22;2595;53.584;10.084;2022-08-04T01:20:41;24.00;99.90
5154;DHT22;2595;53.584;10.084;2022-08-04T01:23:36;24.10;99.90
5154;DHT22;2595;53.584;10.084;2022-08-04T01:26:34;24.10;99.90
5154;DHT22;2595;53.584;10.084;2022-08-04T01:29:11;24.00;99.90
5154;DHT22;2595;53.584;10.084;2022-08-04T01:31:54;24.00;99.90
5154;DHT22;2595;53.584;10.084;2022-08-04T01:34:21;24.10;99.90
5154;DHT22;2595;53.584;10.084;2022-08-04T01:37:19;24.10;99.90
5154;DHT22;2595;53.584;10.084;2022-08-04T01:40:04;24.10;99.90
5154;DHT22;2595;53.584;10.084;2022-08-04T01:42:32;24.00;99.90
5154;DHT22;2595;53.584;10.084;2022-08-04T01:45:06;23.90;99.90
5154;DHT22;2595;53.584;10.084;2022-08-04T01:47:34;23.80;99.90
5154;DHT22;2595;53.584;10.084;2022-08-04T01:52:33;23.70;99.90
5154;DHT22;2595;53.584;10.084;2022-08-04T01:55:00;23.70;99.90
5154;DHT22;2595;53.584;10.084;2022-08-04T01:57:27;23.60;99.90
5154;DHT22;2595;53.584;10.084;2022-08-04T01:59:58;23.50;99.90
5154;DHT22;2595;53.584;10.084;2022-08-04T02:02:23;23.60;99.90
5154;DHT22;2595;53.584;10.084;2022-08-04T02:04:49;23.50;99.90
5154;DHT22;2595;53.584;10.084;2022-08-04T02:15:52;23.60;99.90
5154;DHT22;2595;53.584;10.084;2022-08-04T02:21:24;23.50;99.90
5154;DHT22;2595;53.584;10.084;2022-08-04T02:23:53;23.40;99.90
5154;DHT22;2595;53.584;10.084;2022-08-04T02:26:21;23.40;99.90
5154;DHT22;2595;53.584;10.084;2022-08-04T02:34:24;23.30;99.90
5154;DHT22;2595;53.584;10.084;2022-08-04T02:36:53;23.30;99.90
5154;DHT22;2595;53.584;10.084;2022-08-04T02:39:20;23.20;99.90
5154;DHT22;2595;53.584;10.084;2022-08-04T02:41:47;23.20;99.90
5154;DHT22;2595;53.584;10.084;2022-08-04T02:44:13;23.10;99.90
5154;DHT22;2595;53.584;10.084;2022-08-04T02:46:45;23.10;99.90
5154;DHT22;2595;53.584;10.084;2022-08-04T02:49:12;23.00;99.90
5154;DHT22;2595;53.584;10.084;2022-08-04T02:51:44;23.10;99.90
5154;DHT22;2595;53.584;10.084;2022-08-04T02:54:15;23.10;99.90
5154;DHT22;2595;53.584;10.084;2022-08-04T02:56:44;23.10;99.90
5154;DHT22;2595;53.584;10.084;2022-08-04T02:59:11;23.00;99.90
5154;DHT22;2595;53.584;10.084;2022-08-04T03:01:39;22.90;99.90
5154;DHT22;2595;53.584;10.084;2022-08-04T03:10:29;22.80;99.90
5154;DHT22;2595;53.584;10.084;2022-08-04T03:19:27;22.80;99.90
5154;DHT22;2595;53.584;10.084;2022-08-04T03:22:06;22.80;99.90
5154;DHT22;2595;53.584;10.084;2022-08-04T03:28:16;22.80;99.90
5154;DHT22;2595;53.584;10.084;2022-08-04T03:33:35;22.70;99.90
5154;DHT22;2595;53.584;10.084;2022-08-04T04:18:49;22.60;99.90
5154;DHT22;2595;53.584;10.084;2022-08-04T04:26:45;22.70;99.90
5154;DHT22;2595;53.584;10.084;2022-08-04T04:42:55;22.90;99.90
5154;DHT22;2595;53.584;10.084;2022-08-04T04:56:15;22.90;99.90
5154;DHT22;2595;53.584;10.084;2022-08-04T04:58:42;22.90;99.90
5154;DHT22;2595;53.584;10.084;2022-08-04T05:15:35;23.20;99.90
5154;DHT22;2595;53.584;10.084;2022-08-04T05:18:03;23.20;99.90
5154;DHT22;2595;53.584;10.084;2022-08-04T05:20:39;23.20;99.90
5154;DHT22;2595;53.584;10.084;2022-08-04T05:23:36;23.30;99.90
5154;DHT22;2595;53.584;10.084;2022-08-04T05:26:12;23.30;99.90
5154;DHT22;2595;53.584;10.084;2022-08-04T05:28:42;23.30;99.90
5154;DHT22;2595;53.584;10.084;2022-08-04T05:31:12;23.30;99.90
5154;DHT22;2595;53.584;10.084;2022-08-04T05:33:53;23.40;99.90
5154;DHT22;2595;53.584;10.084;2022-08-04T05:36:22;23.40;99.90
5154;DHT22;2595;53.584;10.084;2022-08-04T05:38:52;23.50;99.90
5154;DHT22;2595;53.584;10.084;2022-08-04T05:41:20;23.50;99.90
5154;DHT22;2595;53.584;10.084;2022-08-04T05:43:48;23.50;99.90
5154;DHT22;2595;53.584;10.084;2022-08-04T05:46:15;23.60;99.90
5154;DHT22;2595;53.584;10.084;2022-08-04T05:48:44;23.60;99.90
5154;DHT22;2595;53.584;10.084;2022-08-04T05:51:10;23.60;99.90
5154;DHT22;2595;53.584;10.084;2022-08-04T05:53:37;23.70;99.90
5154;DHT22;2595;53.584;10.084;2022-08-04T05:56:04;23.70;99.90
5154;DHT22;2595;53.584;10.084;2022-08-04T05:58:31;23.80;99.90
5154;DHT22;2595;53.584;10.084;2022-08-04T06:01:00;23.80;99.90
5154;DHT22;2595;53.584;10.084;2022-08-04T06:03:29;23.90;99.90
5154;DHT22;2595;53.584;10.084;2022-08-04T06:05:56;23.90;99.90
5154;DHT22;2595;53.584;10.084;2022-08-04T06:08:22;23.90;99.90
5154;DHT22;2595;53.584;10.084;2022-08-04T06:10:50;24.00;99.90
5154;DHT22;2595;53.584;10.084;2022-08-04T06:13:20;24.00;99.90
5154;DHT22;2595;53.584;10.084;2022-08-04T06:15:52;24.10;99.90
5154;DHT22;2595;53.584;10.084;2022-08-04T06:18:21;24.10;99.90
5154;DHT22;2595;53.584;10.084;2022-08-04T06:20:47;24.20;99.90
5154;DHT22;2595;53.584;10.084;2022-08-04T06:23:18;24.20;99.90
5154;DHT22;2595;53.584;10.084;2022-08-04T06:25:50;24.30;99.90
5154;DHT22;2595;53.584;10.084;2022-08-04T06:28:17;24.30;99.90
5154;DHT22;2595;53.584;10.084;2022-08-04T06:30:44;24.30;99.90
5154;DHT22;2595;53.584;10.084;2022-08-04T06:33:13;24.30;99.90
5154;DHT22;2595;53.584;10.084;2022-08-04T06:35:58;24.40;99.90
5154;DHT22;2595;53.584;10.084;2022-08-04T06:38:27;24.40;99.90
5154;DHT22;2595;53.584;10.084;2022-08-04T06:40:54;24.40;99.90
5154;DHT22;2595;53.584;10.084;2022-08-04T06:43:23;24.50;99.90
5154;DHT22;2595;53.584;10.084;2022-08-04T06:45:50;24.50;99.90
5154;DHT22;2595;53.584;10.084;2022-08-04T06:48:17;24.50;99.90
5154;DHT22;2595;53.584;10.084;2022-08-04T06:50:47;24.50;99.90
5154;DHT22;2595;53.584;10.084;2022-08-04T06:53:13;24.60;99.90
5154;DHT22;2595;53.584;10.084;2022-08-04T06:55:44;24.60;99.90
5154;DHT22;2595;53.584;10.084;2022-08-04T06:58:10;24.60;99.90
5154;DHT22;2595;53.584;10.084;2022-08-04T07:00:39;24.70;99.90
5154;DHT22;2595;53.584;10.084;2022-08-04T07:03:06;24.70;99.90
5154;DHT22;2595;53.584;10.084;2022-08-04T07:05:33;24.80;99.90
5154;DHT22;2595;53.584;10.084;2022-08-04T07:08:00;24.80;99.90
5154;DHT22;2595;53.584;10.084;2022-08-04T07:10:27;24.80;99.90
5154;DHT22;2595;53.584;10.084;2022-08-04T07:12:57;24.90;99.90
5154;DHT22;2595;53.584;10.084;2022-08-04T07:15:24;24.90;99.90
5154;DHT22;2595;53.584;10.084;2022-08-04T07:17:51;24.90;99.90
5154;DHT22;2595;53.584;10.084;2022-08-04T07:20:17;24.90;99.90
5154;DHT22;2595;53.584;10.084;2022-08-04T07:22:44;25.00;99.90
5154;DHT22;2595;53.584;10.084;2022-08-04T07:25:14;25.00;99.90
5154;DHT22;2595;53.584;10.084;2022-08-04T07:27:41;25.10;99.90
5154;DHT22;2595;53.584;10.084;2022-08-04T07:30:08;25.10;99.90
5154;DHT22;2595;53.584;10.084;2022-08-04T07:32:34;25.20;99.90
5154;DHT22;2595;53.584;10.084;2022-08-04T07:35:01;25.20;99.90
5154;DHT22;2595;53.584;10.084;2022-08-04T07:37:27;25.30;99.90
5154;DHT22;2595;53.584;10.084;2022-08-04T07:39:56;25.30;99.90
5154;DHT22;2595;53.584;10.084;2022-08-04T07:42:22;25.30;99.90
5154;DHT22;2595;53.584;10.084;2022-08-04T07:44:47;25.30;99.90
5154;DHT22;2595;53.584;10.084;2022-08-04T07:47:13;25.40;99.90
5154;DHT22;2595;53.584;10.084;2022-08-04T07:49:42;25.40;99.90
5154;DHT22;2595;53.584;10.084;2022-08-04T07:52:10;25.50;99.90
5154;DHT22;2595;53.584;10.084;2022-08-04T07:54:37;25.50;99.90
5154;DHT22;2595;53.584;10.084;2022-08-04T07:57:03;25.60;99.90
5154;DHT22;2595;53.584;10.084;2022-08-04T07:59:29;25.60;99.90
5154;DHT22;2595;53.584;10.084;2022-08-04T08:01:58;25.70;99.90
5154;DHT22;2595;53.584;10.084;2022-08-04T08:04:25;25.80;99.90
5154;DHT22;2595;53.584;10.084;2022-08-04T08:06:50;25.90;99.90
5154;DHT22;2595;53.584;10.084;2022-08-04T08:09:18;25.90;99.90
5154;DHT22;2595;53.584;10.084;2022-08-04T08:11:47;26.10;99.90
5154;DHT22;2595;53.584;10.084;2022-08-04T08:14:13;26.20;99.90
5154;DHT22;2595;53.584;10.084;2022-08-04T08:16:39;26.20;99.90
5154;DHT22;2595;53.584;10.084;2022-08-04T08:19:05;26.30;99.90
5154;DHT22;2595;53.584;10.084;2022-08-04T08:21:32;26.40;99.90
5154;DHT22;2595;53.584;10.084;2022-08-04T08:23:58;26.40;99.90
5154;DHT22;2595;53.584;10.084;2022-08-04T08:26:24;26.50;99.90
5154;DHT22;2595;53.584;10.084;2022-08-04T08:28:50;26.60;99.90
5154;DHT22;2595;53.584;10.084;2022-08-04T08:31:16;26.60;99.90
5154;DHT22;2595;53.584;10.084;2022-08-04T08:33:42;26.60;99.90
5154;DHT22;2595;53.584;10.084;2022-08-04T08:36:45;26.70;99.90
5154;DHT22;2595;53.584;10.084;2022-08-04T08:39:23;26.80;99.90
5154;DHT22;2595;53.584;10.084;2022-08-04T08:56:49;27.40;99.90
5154;DHT22;2595;53.584;10.084;2022-08-04T09:03:22;27.50;99.90
5154;DHT22;2595;53.584;10.084;2022-08-04T09:16:50;27.90;99.90
5154;DHT22;2595;53.584;10.084;2022-08-04T09:19:38;28.00;99.90
5154;DHT22;2595;53.584;10.084;2022-08-04T09:22:21;28.00;99.90
5154;DHT22;2595;53.584;10.084;2022-08-04T09:25:06;28.10;99.90
5154;DHT22;2595;53.584;10.084;2022-08-04T09:27:45;28.10;99.90
5154;DHT22;2595;53.584;10.084;2022-08-04T09:30:17;28.20;99.90
5154;DHT22;2595;53.584;10.084;2022-08-04T09:32:57;28.30;99.90
5154;DHT22;2595;53.584;10.084;2022-08-04T09:35:36;28.40;99.90
5154;DHT22;2595;53.584;10.084;2022-08-04T09:40:59;28.60;99.90
5154;DHT22;2595;53.584;10.084;2022-08-04T09:43:37;28.60;99.90
5154;DHT22;2595;53.584;10.084;2022-08-04T09:46:14;28.70;99.90
5154;DHT22;2595;53.584;10.084;2022-08-04T09:54:13;28.70;99.90
5154;DHT22;2595;53.584;10.084;2022-08-04T09:59:24;28.90;99.90
5154;DHT22;2595;53.584;10.084;2022-08-04T10:01:58;28.90;99.90
5154;DHT22;2595;53.584;10.084;2022-08-04T10:04:30;29.10;99.90
5154;DHT22;2595;53.584;10.084;2022-08-04T10:09:42;29.20;99.90
5154;DHT22;2595;53.584;10.084;2022-08-04T10:20:58;29.50;99.90
5154;DHT22;2595;53.584;10.084;2022-08-04T10:26:54;29.70;99.90
5154;DHT22;2595;53.584;10.084;2022-08-04T10:29:29;29.70;99.90
5154;DHT22;2595;53.584;10.084;2022-08-04T10:38:00;29.70;99.90
5154;DHT22;2595;53.584;10.084;2022-08-04T10:40:39;29.80;99.90
5154;DHT22;2595;53.584;10.084;2022-08-04T10:43:32;29.90;99.90
5154;DHT22;2595;53.584;10.084;2022-08-04T10:46:04;30.00;99.90
5154;DHT22;2595;53.584;10.084;2022-08-04T10:48:53;30.30;99.90
5154;DHT22;2595;53.584;10.084;2022-08-04T10:54:14;32.30;97.70
5154;DHT22;2595;53.584;10.084;2022-08-04T10:57:07;33.10;96.30
5154;DHT22;2595;53.584;10.084;2022-08-04T10:59:39;33.80;95.00
5154;DHT22;2595;53.584;10.084;2022-08-04T11:04:48;33.60;92.70
5154;DHT22;2595;53.584;10.084;2022-08-04T11:07:16;33.30;91.90
5154;DHT22;2595;53.584;10.084;2022-08-04T11:09:43;32.90;92.00
5154;DHT22;2595;53.584;10.084;2022-08-04T11:12:15;32.70;93.00
5154;DHT22;2595;53.584;10.084;2022-08-04T11:15:08;32.50;92.70
5154;DHT22;2595;53.584;10.084;2022-08-04T11:17:38;32.30;92.60
5154;DHT22;2595;53.584;10.084;2022-08-04T11:20:17;32.20;92.00
5154;DHT22;2595;53.584;10.084;2022-08-04T11:23:14;32.10;91.50
5154;DHT22;2595;53.584;10.084;2022-08-04T11:26:04;32.00;89.40
5154;DHT22;2595;53.584;10.084;2022-08-04T11:28:51;31.90;90.10
5154;DHT22;2595;53.584;10.084;2022-08-04T11:31:25;31.90;91.70
5154;DHT22;2595;53.584;10.084;2022-08-04T11:36:24;32.00;91.10
5154;DHT22;2595;53.584;10.084;2022-08-04T11:39:07;32.00;90.70
5154;DHT22;2595;53.584;10.084;2022-08-04T11:44:18;32.20;91.00
5154;DHT22;2595;53.584;10.084;2022-08-04T11:46:50;32.20;90.70
5154;DHT22;2595;53.584;10.084;2022-08-04T11:52:00;32.10;91.80
5154;DHT22;2595;53.584;10.084;2022-08-04T11:54:27;32.10;90.90
5154;DHT22;2595;53.584;10.084;2022-08-04T11:56:53;32.20;90.80
5154;DHT22;2595;53.584;10.084;2022-08-04T11:59:21;32.20;90.90
5154;DHT22;2595;53.584;10.084;2022-08-04T12:04:58;32.40;87.60
5154;DHT22;2595;53.584;10.084;2022-08-04T12:10:25;32.50;89.00
5154;DHT22;2595;53.584;10.084;2022-08-04T12:13:05;32.60;86.10
5154;DHT22;2595;53.584;10.084;2022-08-04T12:16:00;32.80;84.00
5154;DHT22;2595;53.584;10.084;2022-08-04T12:18:39;32.70;85.70
5154;DHT22;2595;53.584;10.084;2022-08-04T12:21:13;32.80;83.90
5154;DHT22;2595;53.584;10.084;2022-08-04T12:23:42;32.60;82.70
5154;DHT22;2595;53.584;10.084;2022-08-04T12:26:14;32.70;79.30
5154;DHT22;2595;53.584;10.084;2022-08-04T12:28:46;32.80;73.80
5154;DHT22;2595;53.584;10.084;2022-08-04T12:31:22;32.90;73.60
5154;DHT22;2595;53.584;10.084;2022-08-04T12:33:58;32.90;70.90
5154;DHT22;2595;53.584;10.084;2022-08-04T12:36:39;32.90;70.60
5154;DHT22;2595;53.584;10.084;2022-08-04T12:39:16;33.00;71.00
5154;DHT22;2595;53.584;10.084;2022-08-04T12:42:08;33.00;68.80
5154;DHT22;2595;53.584;10.084;2022-08-04T12:44:43;33.10;71.20
5154;DHT22;2595;53.584;10.084;2022-08-04T12:47:11;33.10;70.90
5154;DHT22;2595;53.584;10.084;2022-08-04T12:49:40;33.20;70.10
5154;DHT22;2595;53.584;10.084;2022-08-04T12:52:07;33.30;68.30
5154;DHT22;2595;53.584;10.084;2022-08-04T12:54:35;33.20;66.40
5154;DHT22;2595;53.584;10.084;2022-08-04T12:57:05;33.30;67.80
5154;DHT22;2595;53.584;10.084;2022-08-04T12:59:42;33.20;67.90
5154;DHT22;2595;53.584;10.084;2022-08-04T13:02:15;33.30;67.00
5154;DHT22;2595;53.584;10.084;2022-08-04T13:04:43;33.30;66.90
5154;DHT22;2595;53.584;10.084;2022-08-04T13:07:14;33.30;67.00
5154;DHT22;2595;53.584;10.084;2022-08-04T13:09:40;33.30;66.70
5154;DHT22;2595;53.584;10.084;2022-08-04T13:12:13;33.30;66.90
5154;DHT22;2595;53.584;10.084;2022-08-04T13:14:40;33.40;67.30
5154;DHT22;2595;53.584;10.084;2022-08-04T13:17:09;33.40;66.40
5154;DHT22;2595;53.584;10.084;2022-08-04T13:19:35;33.40;64.90
5154;DHT22;2595;53.584;10.084;2022-08-04T13:22:01;33.50;65.70
5154;DHT22;2595;53.584;10.084;2022-08-04T13:24:28;33.60;67.70
5154;DHT22;2595;53.584;10.084;2022-08-04T13:27:04;33.50;67.40
5154;DHT22;2595;53.584;10.084;2022-08-04T13:29:37;33.50;66.60
5154;DHT22;2595;53.584;10.084;2022-08-04T13:32:04;33.50;66.40
5154;DHT22;2595;53.584;10.084;2022-08-04T13:34:32;33.50;67.40
5154;DHT22;2595;53.584;10.084;2022-08-04T13:37:01;33.60;64.40
5154;DHT22;2595;53.584;10.084;2022-08-04T13:39:28;33.60;65.30
5154;DHT22;2595;53.584;10.084;2022-08-04T13:41:55;33.60;65.70
5154;DHT22;2595;53.584;10.084;2022-08-04T13:44:32;33.80;64.70
5154;DHT22;2595;53.584;10.084;2022-08-04T13:47:02;34.00;62.70
5154;DHT22;2595;53.584;10.084;2022-08-04T13:49:29;34.00;62.40
5154;DHT22;2595;53.584;10.084;2022-08-04T13:51:59;33.90;60.90
5154;DHT22;2595;53.584;10.084;2022-08-04T13:57:07;33.60;60.60
5154;DHT22;2595;53.584;10.084;2022-08-04T13:59:36;33.50;62.60
5154;DHT22;2595;53.584;10.084;2022-08-04T14:02:08;33.40;63.20
5154;DHT22;2595;53.584;10.084;2022-08-04T14:04:40;33.30;62.90
5154;DHT22;2595;53.584;10.084;2022-08-04T14:07:17;33.30;64.00
5154;DHT22;2595;53.584;10.084;2022-08-04T14:09:44;33.20;64.60
5154;DHT22;2595;53.584;10.084;2022-08-04T14:12:13;33.20;64.50
5154;DHT22;2595;53.584;10.084;2022-08-04T14:14:52;33.20;66.00
5154;DHT22;2595;53.584;10.084;2022-08-04T14:17:24;33.20;65.80
5154;DHT22;2595;53.584;10.084;2022-08-04T14:20:00;33.20;65.90
5154;DHT22;2595;53.584;10.084;2022-08-04T14:24:59;33.20;66.30
5154;DHT22;2595;53.584;10.084;2022-08-04T14:27:27;33.10;65.90
5154;DHT22;2595;53.584;10.084;2022-08-04T14:29:53;33.10;66.40
5154;DHT22;2595;53.584;10.084;2022-08-04T14:32:19;33.30;66.30
5154;DHT22;2595;53.584;10.084;2022-08-04T14:34:45;33.30;66.10
5154;DHT22;2595;53.584;10.084;2022-08-04T14:37:16;33.50;65.00
5154;DHT22;2595;53.584;10.084;2022-08-04T14:39:49;33.60;65.90
5154;DHT22;2595;53.584;10.084;2022-08-04T14:42:15;33.70;65.10
5154;DHT22;2595;53.584;10.084;2022-08-04T14:44:57;33.80;64.10
5154;DHT22;2595;53.584;10.084;2022-08-04T14:50:05;33.70;65.20
5154;DHT22;2595;53.584;10.084;2022-08-04T14:52:32;33.60;64.60
5154;DHT22;2595;53.584;10.084;2022-08-04T14:55:00;33.50;64.30
5154;DHT22;2595;53.584;10.084;2022-08-04T14:57:38;33.40;63.40
5154;DHT22;2595;53.584;10.084;2022-08-04T15:00:05;33.30;64.60
5154;DHT22;2595;53.584;10.084;2022-08-04T15:02:31;33.20;71.60
5154;DHT22;2595;53.584;10.084;2022-08-04T15:04:58;33.10;78.10
5154;DHT22;2595;53.584;10.084;2022-08-04T15:07:24;33.00;85.50
5154;DHT22;2595;53.584;10.084;2022-08-04T15:09:51;32.80;90.40
5154;DHT22;2595;53.584;10.084;2022-08-04T15:12:16;32.60;93.60
5154;DHT22;2595;53.584;10.084;2022-08-04T15:14:42;32.40;98.00
5154;DHT22;2595;53.584;10.084;2022-08-04T15:17:10;32.20;99.70
5154;DHT22;2595;53.584;10.084;2022-08-04T15:19:37;31.90;99.90
5154;DHT22;2595;53.584;10.084;2022-08-04T15:22:03;31.70;99.90
5154;DHT22;2595;53.584;10.084;2022-08-04T15:24:29;31.40;99.90
5154;DHT22;2595;53.584;10.084;2022-08-04T15:26:56;31.30;99.90
5154;DHT22;2595;53.584;10.084;2022-08-04T15:29:35;31.10;99.90
5154;DHT22;2595;53.584;10.084;2022-08-04T15:32:04;31.00;99.90
5154;DHT22;2595;53.584;10.084;2022-08-04T15:35:09;30.80;99.90
5154;DHT22;2595;53.584;10.084;2022-08-04T15:40:35;30.50;99.90
5154;DHT22;2595;53.584;10.084;2022-08-04T15:45:56;30.20;99.90
5154;DHT22;2595;53.584;10.084;2022-08-04T15:48:28;30.10;99.90
5154;DHT22;2595;53.584;10.084;2022-08-04T15:53:23;29.80;99.90
5154;DHT22;2595;53.584;10.084;2022-08-04T15:55:48;29.70;99.90
5154;DHT22;2595;53.584;10.084;2022-08-04T15:58:15;29.60;99.90
5154;DHT22;2595;53.584;10.084;2022-08-04T16:19:24;27.50;99.90
5154;DHT22;2595;53.584;10.084;2022-08-04T16:22:01;27.30;99.90
5154;DHT22;2595;53.584;10.084;2022-08-04T16:24:38;27.10;99.90
5154;DHT22;2595;53.584;10.084;2022-08-04T16:27:09;26.80;99.90
5154;DHT22;2595;53.584;10.084;2022-08-04T16:29:41;26.70;99.90
5154;DHT22;2595;53.584;10.084;2022-08-04T16:32:15;26.60;99.90
5154;DHT22;2595;53.584;10.084;2022-08-04T16:34:48;26.60;99.90
5154;DHT22;2595;53.584;10.084;2022-08-04T16:37:17;26.60;99.90
5154;DHT22;2595;53.584;10.084;2022-08-04T16:39:44;26.70;99.90
5154;DHT22;2595;53.584;10.084;2022-08-04T16:42:30;26.60;99.90
5154;DHT22;2595;53.584;10.084;2022-08-04T16:50:20;26.20;99.90
5154;DHT22;2595;53.584;10.084;2022-08-04T16:52:48;26.10;99.90
5154;DHT22;2595;53.584;10.084;2022-08-04T16:55:15;26.00;99.90
5154;DHT22;2595;53.584;10.084;2022-08-04T16:57:49;25.90;99.90
5154;DHT22;2595;53.584;10.084;2022-08-04T17:00:15;25.90;99.90
5154;DHT22;2595;53.584;10.084;2022-08-04T17:02:42;25.80;99.90
5154;DHT22;2595;53.584;10.084;2022-08-04T17:05:20;25.80;99.90
5154;DHT22;2595;53.584;10.084;2022-08-04T17:07:50;25.80;99.90
5154;DHT22;2595;53.584;10.084;2022-08-04T17:10:16;25.80;99.90
5154;DHT22;2595;53.584;10.084;2022-08-04T17:12:42;25.70;99.90
5154;DHT22;2595;53.584;10.084;2022-08-04T17:15:21;25.80;99.90
5154;DHT22;2595;53.584;10.084;2022-08-04T17:17:47;25.80;99.90
5154;DHT22;2595;53.584;10.084;2022-08-04T17:20:13;25.90;99.90
5154;DHT22;2595;53.584;10.084;2022-08-04T17:22:39;25.90;99.90
5154;DHT22;2595;53.584;10.084;2022-08-04T17:25:05;26.00;99.90
5154;DHT22;2595;53.584;10.084;2022-08-04T17:27:31;26.00;99.90
5154;DHT22;2595;53.584;10.084;2022-08-04T17:29:57;26.00;99.90
5154;DHT22;2595;53.584;10.084;2022-08-04T17:32:22;26.00;99.90
5154;DHT22;2595;53.584;10.084;2022-08-04T17:34:50;26.00;99.90
5154;DHT22;2595;53.584;10.084;2022-08-04T17:37:17;26.00;99.90
5154;DHT22;2595;53.584;10.084;2022-08-04T17:39:43;26.00;99.90
5154;DHT22;2595;53.584;10.084;2022-08-04T17:42:08;26.00;99.90
5154;DHT22;2595;53.584;10.084;2022-08-04T17:45:10;26.00;99.90
5154;DHT22;2595;53.584;10.084;2022-08-04T17:47:51;26.00;99.90
5154;DHT22;2595;53.584;10.084;2022-08-04T17:50:24;26.00;99.90
5154;DHT22;2595;53.584;10.084;2022-08-04T17:55:45;26.00;99.90
5154;DHT22;2595;53.584;10.084;2022-08-04T17:58:21;26.00;99.90
5154;DHT22;2595;53.584;10.084;2022-08-04T18:01:01;26.00;99.90
5154;DHT22;2595;53.584;10.084;2022-08-04T18:03:27;26.00;99.90
5154;DHT22;2595;53.584;10.084;2022-08-04T18:05:53;25.90;99.90
5154;DHT22;2595;53.584;10.084;2022-08-04T18:08:26;25.90;99.90
5154;DHT22;2595;53.584;10.084;2022-08-04T18:10:53;25.90;99.90
5154;DHT22;2595;53.584;10.084;2022-08-04T18:13:19;25.90;99.90
5154;DHT22;2595;53.584;10.084;2022-08-04T18:15:45;25.90;99.90
5154;DHT22;2595;53.584;10.084;2022-08-04T18:18:19;26.00;99.90
5154;DHT22;2595;53.584;10.084;2022-08-04T18:20:46;25.90;99.90
5154;DHT22;2595;53.584;10.084;2022-08-04T18:23:12;25.90;99.90
5154;DHT22;2595;53.584;10.084;2022-08-04T18:25:38;25.80;99.90
5154;DHT22;2595;53.584;10.084;2022-08-04T18:28:08;25.80;99.90
5154;DHT22;2595;53.584;10.084;2022-08-04T18:30:35;25.70;99.90
5154;DHT22;2595;53.584;10.084;2022-08-04T18:33:01;25.80;99.90
5154;DHT22;2595;53.584;10.084;2022-08-04T18:35:28;25.70;99.90
5154;DHT22;2595;53.584;10.084;2022-08-04T18:37:54;25.70;99.90
5154;DHT22;2595;53.584;10.084;2022-08-04T18:40:20;25.70;99.90
5154;DHT22;2595;53.584;10.084;2022-08-04T18:42:46;25.70;99.90
5154;DHT22;2595;53.584;10.084;2022-08-04T18:45:11;25.80;99.90
5154;DHT22;2595;53.584;10.084;2022-08-04T18:47:38;25.80;99.90
5154;DHT22;2595;53.584;10.084;2022-08-04T18:50:05;25.60;99.90
5154;DHT22;2595;53.584;10.084;2022-08-04T18:52:31;25.70;99.90
5154;DHT22;2595;53.584;10.084;2022-08-04T18:54:57;25.60;99.90
5154;DHT22;2595;53.584;10.084;2022-08-04T18:57:24;25.60;99.90
5154;DHT22;2595;53.584;10.084;2022-08-04T18:59:52;25.60;99.90
5154;DHT22;2595;53.584;10.084;2022-08-04T19:02:19;25.50;99.90
5154;DHT22;2595;53.584;10.084;2022-08-04T19:04:45;25.50;99.90
5154;DHT22;2595;53.584;10.084;2022-08-04T19:07:11;25.40;99.90
5154;DHT22;2595;53.584;10.084;2022-08-04T19:09:40;25.50;99.90
5154;DHT22;2595;53.584;10.084;2022-08-04T19:12:06;25.50;99.90
5154;DHT22;2595;53.584;10.084;2022-08-04T19:14:31;25.60;99.90
5154;DHT22;2595;53.584;10.084;2022-08-04T19:16:57;25.50;99.90
5154;DHT22;2595;53.584;10.084;2022-08-04T19:19:22;25.50;99.90
5154;DHT22;2595;53.584;10.084;2022-08-04T19:21:48;25.40;99.90
5154;DHT22;2595;53.584;10.084;2022-08-04T19:24:14;25.40;99.90
5154;DHT22;2595;53.584;10.084;2022-08-04T19:26:40;25.30;99.90
5154;DHT22;2595;53.584;10.084;2022-08-04T19:29:06;25.30;99.90
5154;DHT22;2595;53.584;10.084;2022-08-04T19:31:32;25.30;99.90
5154;DHT22;2595;53.584;10.084;2022-08-04T19:33:57;25.20;99.90
5154;DHT22;2595;53.584;10.084;2022-08-04T19:36:24;25.20;99.90
5154;DHT22;2595;53.584;10.084;2022-08-04T19:38:52;25.30;99.90
5154;DHT22;2595;53.584;10.084;2022-08-04T19:41:18;25.20;99.90
5154;DHT22;2595;53.584;10.084;2022-08-04T19:43:44;25.20;99.90
5154;DHT22;2595;53.584;10.084;2022-08-04T19:46:12;25.10;99.90
5154;DHT22;2595;53.584;10.084;2022-08-04T19:48:38;25.10;99.90
5154;DHT22;2595;53.584;10.084;2022-08-04T19:51:04;25.10;99.90
5154;DHT22;2595;53.584;10.084;2022-08-04T19:53:29;25.00;99.90
5154;DHT22;2595;53.584;10.084;2022-08-04T19:55:55;25.00;99.90
5154;DHT22;2595;53.584;10.084;2022-08-04T19:58:20;24.90;99.90
5154;DHT22;2595;53.584;10.084;2022-08-04T20:00:47;25.00;99.90
5154;DHT22;2595;53.584;10.084;2022-08-04T20:03:13;25.00;99.90
5154;DHT22;2595;53.584;10.084;2022-08-04T20:05:40;25.00;99.90
5154;DHT22;2595;53.584;10.084;2022-08-04T20:08:06;25.00;99.90
5154;DHT22;2595;53.584;10.084;2022-08-04T20:10:31;24.90;99.90
5154;DHT22;2595;53.584;10.084;2022-08-04T20:12:57;24.90;99.90
5154;DHT22;2595;53.584;10.084;2022-08-04T20:15:26;24.80;99.90
5154;DHT22;2595;53.584;10.084;2022-08-04T20:17:51;24.80;99.90
5154;DHT22;2595;53.584;10.084;2022-08-04T20:20:17;24.80;99.90
5154;DHT22;2595;53.584;10.084;2022-08-04T20:22:42;24.80;99.90
5154;DHT22;2595;53.584;10.084;2022-08-04T20:25:08;24.80;99.90
5154;DHT22;2595;53.584;10.084;2022-08-04T20:27:35;24.70;99.90
5154;DHT22;2595;53.584;10.084;2022-08-04T20:30:01;24.70;99.90
5154;DHT22;2595;53.584;10.084;2022-08-04T20:32:27;24.60;99.90
5154;DHT22;2595;53.584;10.084;2022-08-04T20:34:55;24.60;99.90
5154;DHT22;2595;53.584;10.084;2022-08-04T20:37:23;24.70;99.90
5154;DHT22;2595;53.584;10.084;2022-08-04T20:39:57;24.70;99.90
5154;DHT22;2595;53.584;10.084;2022-08-04T20:42:27;24.60;99.90